< Cyclone 201821 2018 Season Cyclone 201824 >
Cyclone 201822 (Nora)
General InformationTrack Information on Google MapsDetailed Wind InformationList of All Images || ResourceGoogle EarthGE AnimationAtom FeedGeoJSON
Detalied Best Track (Time Zone = UTC)
Year Month Day Hour Lat. Long. Pressure (hPa) Wind (kt) Class Image Chart
2018 3 20 00 -7.6 137.2 1004 15 2 Image --
2018 3 20 03 -7.7 136.9 1003.4 15 2 Image --
2018 3 20 06 -7.8 136.8 1002.8 15 2 Image --
2018 3 20 12 -7.9 136.8 1002.2 15 2 Image --
2018 3 20 18 -8.1 137.0 1001.6 16.6667 0 Image --
2018 3 20 21 -9.1 136.8 1001 18.3333 0 Image --
2018 3 21 00 -9.3 136.4 1001 20 2 Image --
2018 3 21 03 -9.6 136.2 1000 20 2 Image --
2018 3 21 06 -9.5 136.0 999 20 2 Image --
2018 3 21 09 -9.5 135.9 999 20 2 Image --
2018 3 21 12 -9.6 135.8 999 20 2 Image --
2018 3 21 15 -9.4 135.9 999 20 2 Image --
2018 3 21 18 -9.7 136.0 998 20 2 Image --
2018 3 21 21 -9.9 136.0 998 20 2 Image --
2018 3 22 00 -9.8 135.0 997 20 2 Image --
2018 3 22 03 -9.7 135.1 997 25 2 Image --
2018 3 22 06 -9.7 135.9 995 30 2 Image --
2018 3 22 09 -9.9 136.2 996 30 2 Image --
2018 3 22 12 -9.8 136.4 994 35 3 Image --
2018 3 22 15 -9.8 136.6 994 35 3 Image --
2018 3 22 18 -9.8 136.7 992 35 3 Image --
2018 3 22 21 -9.8 136.8 988 45 3 Image --
2018 3 23 00 -9.8 137.0 986 50 4 Image --
2018 3 23 03 -10.0 137.4 985 50 4 Image --
2018 3 23 06 -10.3 138.0 980 60 4 Image --
2018 3 23 09 -10.8 138.4 976 65 5 Image --
2018 3 23 12 -11.1 138.7 963 80 5 Image --
2018 3 23 15 -11.6 139.1 963 80 5 Image --
2018 3 23 18 -12.0 139.4 959 85 5 Image --
2018 3 23 21 -12.3 139.6 958 85 5 Image --
2018 3 24 00 -12.5 140.0 958 85 5 Image --
2018 3 24 03 -12.9 140.5 968 75 5 Image --
2018 3 24 06 -13.4 140.9 968 75 5 Image --
2018 3 24 09 -13.8 141.2 978 65 5 Image --
2018 3 24 12 -14.3 141.5 976 65 5 Image --
2018 3 24 15 -14.9 141.7 978 65 5 Image --
2018 3 24 18 -15.3 141.5 982 55 4 Image --
2018 3 24 21 -15.7 141.4 984 50 4 Image --
2018 3 25 00 -16.0 141.4 987 40 3 Image --
2018 3 25 03 -16.4 141.3 988 40 3 Image --
2018 3 25 06 -16.5 141.4 989 30 2 Image --
2018 3 25 12 -16.7 141.5 992 30 2 Image --
2018 3 25 18 -16.8 141.6 993 25 2 Image --
2018 3 26 00 -16.7 141.6 993 25 2 Image --
< Cyclone 201821 2018 Season Cyclone 201824 >

Help